sensor_id;sensor_type;location;lat;lon;timestamp;temperature;humidity
25640;DHT22;13497;48.322;16.204;2023-05-16T00:00:11;13.00;99.90
25640;DHT22;13497;48.322;16.204;2023-05-16T00:02:37;13.00;99.90
25640;DHT22;13497;48.322;16.204;2023-05-16T00:05:04;12.90;99.90
25640;DHT22;13497;48.322;16.204;2023-05-16T00:07:33;12.90;99.90
25640;DHT22;13497;48.322;16.204;2023-05-16T00:09:59;12.90;99.90
25640;DHT22;13497;48.322;16.204;2023-05-16T00:12:25;12.80;99.90
25640;DHT22;13497;48.322;16.204;2023-05-16T00:14:51;12.90;99.90
25640;DHT22;13497;48.322;16.204;2023-05-16T00:17:18;12.90;99.90
25640;DHT22;13497;48.322;16.204;2023-05-16T00:19:45;12.80;99.90
25640;DHT22;13497;48.322;16.204;2023-05-16T00:22:14;12.80;99.90
25640;DHT22;13497;48.322;16.204;2023-05-16T00:24:40;12.70;99.90
25640;DHT22;13497;48.322;16.204;2023-05-16T00:27:06;12.70;99.90
25640;DHT22;13497;48.322;16.204;2023-05-16T00:29:35;12.60;99.90
25640;DHT22;13497;48.322;16.204;2023-05-16T00:32:01;12.60;99.90
25640;DHT22;13497;48.322;16.204;2023-05-16T00:34:26;12.60;99.90
25640;DHT22;13497;48.322;16.204;2023-05-16T00:36:52;12.50;99.90
25640;DHT22;13497;48.322;16.204;2023-05-16T00:39:18;12.50;99.90
25640;DHT22;13497;48.322;16.204;2023-05-16T00:41:44;12.40;99.90
25640;DHT22;13497;48.322;16.204;2023-05-16T00:44:10;12.30;99.90
25640;DHT22;13497;48.322;16.204;2023-05-16T00:46:36;12.30;99.90
25640;DHT22;13497;48.322;16.204;2023-05-16T00:49:02;12.30;99.90
25640;DHT22;13497;48.322;16.204;2023-05-16T00:51:28;12.30;99.90
25640;DHT22;13497;48.322;16.204;2023-05-16T00:53:55;12.30;99.90
25640;DHT22;13497;48.322;16.204;2023-05-16T00:56:21;12.30;99.90
25640;DHT22;13497;48.322;16.204;2023-05-16T00:58:47;12.30;99.90
25640;DHT22;13497;48.322;16.204;2023-05-16T01:01:13;12.20;99.90
25640;DHT22;13497;48.322;16.204;2023-05-16T01:03:39;12.20;99.90
25640;DHT22;13497;48.322;16.204;2023-05-16T01:06:05;12.20;99.90
25640;DHT22;13497;48.322;16.204;2023-05-16T01:08:31;12.20;99.90
25640;DHT22;13497;48.322;16.204;2023-05-16T01:16:45;12.00;99.90
25640;DHT22;13497;48.322;16.204;2023-05-16T01:21:58;12.00;99.90
25640;DHT22;13497;48.322;16.204;2023-05-16T01:24:38;12.00;99.90
25640;DHT22;13497;48.322;16.204;2023-05-16T01:27:09;12.10;99.90
25640;DHT22;13497;48.322;16.204;2023-05-16T01:29:36;12.10;99.90
25640;DHT22;13497;48.322;16.204;2023-05-16T01:32:01;12.10;99.90
25640;DHT22;13497;48.322;16.204;2023-05-16T01:34:27;12.10;99.90
25640;DHT22;13497;48.322;16.204;2023-05-16T01:37:32;12.10;99.90
25640;DHT22;13497;48.322;16.204;2023-05-16T01:40:07;12.10;99.90
25640;DHT22;13497;48.322;16.204;2023-05-16T01:42:37;12.20;99.90
25640;DHT22;13497;48.322;16.204;2023-05-16T01:47:45;12.20;99.90
25640;DHT22;13497;48.322;16.204;2023-05-16T01:50:20;12.20;99.90
25640;DHT22;13497;48.322;16.204;2023-05-16T01:53:05;12.20;99.90
25640;DHT22;13497;48.322;16.204;2023-05-16T01:58:09;12.20;99.90
25640;DHT22;13497;48.322;16.204;2023-05-16T02:00:35;12.20;99.90
25640;DHT22;13497;48.322;16.204;2023-05-16T02:03:01;12.20;99.90
25640;DHT22;13497;48.322;16.204;2023-05-16T02:05:27;12.20;99.90
25640;DHT22;13497;48.322;16.204;2023-05-16T02:07:53;12.20;99.90
25640;DHT22;13497;48.322;16.204;2023-05-16T02:10:18;12.30;99.90
25640;DHT22;13497;48.322;16.204;2023-05-16T02:12:44;12.30;99.90
25640;DHT22;13497;48.322;16.204;2023-05-16T02:15:10;12.40;99.90
25640;DHT22;13497;48.322;16.204;2023-05-16T02:17:36;12.40;99.90
25640;DHT22;13497;48.322;16.204;2023-05-16T02:20:02;12.40;99.90
25640;DHT22;13497;48.322;16.204;2023-05-16T02:22:32;12.40;99.90
25640;DHT22;13497;48.322;16.204;2023-05-16T02:24:59;12.30;99.90
25640;DHT22;13497;48.322;16.204;2023-05-16T02:27:25;12.30;99.90
25640;DHT22;13497;48.322;16.204;2023-05-16T02:29:51;12.20;99.90
25640;DHT22;13497;48.322;16.204;2023-05-16T02:32:16;12.20;99.90
25640;DHT22;13497;48.322;16.204;2023-05-16T02:34:42;12.10;99.90
25640;DHT22;13497;48.322;16.204;2023-05-16T02:37:07;12.10;99.90
25640;DHT22;13497;48.322;16.204;2023-05-16T02:39:33;12.10;99.90
25640;DHT22;13497;48.322;16.204;2023-05-16T02:41:59;12.10;99.90
25640;DHT22;13497;48.322;16.204;2023-05-16T02:44:25;12.10;99.90
25640;DHT22;13497;48.322;16.204;2023-05-16T02:46:50;12.00;99.90
25640;DHT22;13497;48.322;16.204;2023-05-16T02:49:16;12.00;99.90
25640;DHT22;13497;48.322;16.204;2023-05-16T02:51:42;12.00;99.90
25640;DHT22;13497;48.322;16.204;2023-05-16T02:54:07;12.00;99.90
25640;DHT22;13497;48.322;16.204;2023-05-16T02:56:34;12.10;99.90
25640;DHT22;13497;48.322;16.204;2023-05-16T02:59:00;12.00;99.90
25640;DHT22;13497;48.322;16.204;2023-05-16T03:01:26;12.00;99.90
25640;DHT22;13497;48.322;16.204;2023-05-16T03:03:51;12.00;99.90
25640;DHT22;13497;48.322;16.204;2023-05-16T03:06:17;11.90;99.90
25640;DHT22;13497;48.322;16.204;2023-05-16T03:08:43;12.00;99.90
25640;DHT22;13497;48.322;16.204;2023-05-16T03:11:08;12.00;99.90
25640;DHT22;13497;48.322;16.204;2023-05-16T03:13:34;11.90;99.90
25640;DHT22;13497;48.322;16.204;2023-05-16T03:16:00;12.00;99.90
25640;DHT22;13497;48.322;16.204;2023-05-16T03:18:26;12.00;99.90
25640;DHT22;13497;48.322;16.204;2023-05-16T03:20:51;12.10;99.90
25640;DHT22;13497;48.322;16.204;2023-05-16T03:23:20;12.10;99.90
25640;DHT22;13497;48.322;16.204;2023-05-16T03:25:46;12.10;99.90
25640;DHT22;13497;48.322;16.204;2023-05-16T03:28:12;12.10;99.90
25640;DHT22;13497;48.322;16.204;2023-05-16T03:30:38;12.10;99.90
25640;DHT22;13497;48.322;16.204;2023-05-16T03:33:03;12.10;99.90
25640;DHT22;13497;48.322;16.204;2023-05-16T03:35:30;12.10;99.90
25640;DHT22;13497;48.322;16.204;2023-05-16T03:37:56;12.10;99.90
25640;DHT22;13497;48.322;16.204;2023-05-16T03:40:22;12.10;99.90
25640;DHT22;13497;48.322;16.204;2023-05-16T03:42:48;12.10;99.90
25640;DHT22;13497;48.322;16.204;2023-05-16T03:45:13;12.10;99.90
25640;DHT22;13497;48.322;16.204;2023-05-16T03:47:39;12.10;99.90
25640;DHT22;13497;48.322;16.204;2023-05-16T03:50:05;12.10;99.90
25640;DHT22;13497;48.322;16.204;2023-05-16T03:52:31;12.20;99.90
25640;DHT22;13497;48.322;16.204;2023-05-16T03:54:56;12.20;99.90
25640;DHT22;13497;48.322;16.204;2023-05-16T03:57:22;12.30;99.90
25640;DHT22;13497;48.322;16.204;2023-05-16T03:59:48;12.40;99.90
25640;DHT22;13497;48.322;16.204;2023-05-16T04:02:13;12.30;99.90
25640;DHT22;13497;48.322;16.204;2023-05-16T04:04:39;12.40;99.90
25640;DHT22;13497;48.322;16.204;2023-05-16T04:07:05;12.50;99.90
25640;DHT22;13497;48.322;16.204;2023-05-16T04:09:31;12.60;99.90
25640;DHT22;13497;48.322;16.204;2023-05-16T04:11:57;12.60;99.90
25640;DHT22;13497;48.322;16.204;2023-05-16T04:14:26;12.70;99.90
25640;DHT22;13497;48.322;16.204;2023-05-16T04:16:52;12.80;99.90
25640;DHT22;13497;48.322;16.204;2023-05-16T04:19:17;12.90;99.90
25640;DHT22;13497;48.322;16.204;2023-05-16T04:21:43;13.00;99.90
25640;DHT22;13497;48.322;16.204;2023-05-16T04:24:08;13.20;99.90
25640;DHT22;13497;48.322;16.204;2023-05-16T04:26:35;13.30;99.90
25640;DHT22;13497;48.322;16.204;2023-05-16T04:29:01;13.40;99.90
25640;DHT22;13497;48.322;16.204;2023-05-16T04:31:27;13.50;99.90
25640;DHT22;13497;48.322;16.204;2023-05-16T04:33:53;13.60;99.90
25640;DHT22;13497;48.322;16.204;2023-05-16T04:36:19;13.60;99.90
25640;DHT22;13497;48.322;16.204;2023-05-16T04:38:45;13.60;99.90
25640;DHT22;13497;48.322;16.204;2023-05-16T04:41:11;13.70;99.90
25640;DHT22;13497;48.322;16.204;2023-05-16T04:43:38;13.60;99.90
25640;DHT22;13497;48.322;16.204;2023-05-16T04:46:04;13.50;99.90
25640;DHT22;13497;48.322;16.204;2023-05-16T04:48:31;13.50;99.90
25640;DHT22;13497;48.322;16.204;2023-05-16T04:50:57;13.50;99.90
25640;DHT22;13497;48.322;16.204;2023-05-16T04:53:23;13.50;99.90
25640;DHT22;13497;48.322;16.204;2023-05-16T04:55:48;13.60;99.90
25640;DHT22;13497;48.322;16.204;2023-05-16T04:58:14;13.50;99.90
25640;DHT22;13497;48.322;16.204;2023-05-16T05:00:40;13.60;99.90
25640;DHT22;13497;48.322;16.204;2023-05-16T05:03:06;13.60;99.90
25640;DHT22;13497;48.322;16.204;2023-05-16T05:05:31;13.60;99.90
25640;DHT22;13497;48.322;16.204;2023-05-16T05:07:57;13.70;99.90
25640;DHT22;13497;48.322;16.204;2023-05-16T05:10:23;13.70;99.90
25640;DHT22;13497;48.322;16.204;2023-05-16T05:12:49;13.80;99.90
25640;DHT22;13497;48.322;16.204;2023-05-16T05:15:15;13.90;99.90
25640;DHT22;13497;48.322;16.204;2023-05-16T05:17:40;13.90;99.90
25640;DHT22;13497;48.322;16.204;2023-05-16T05:20:06;14.10;99.90
25640;DHT22;13497;48.322;16.204;2023-05-16T05:22:33;14.20;99.90
25640;DHT22;13497;48.322;16.204;2023-05-16T05:24:59;14.50;99.90
25640;DHT22;13497;48.322;16.204;2023-05-16T05:27:25;14.70;99.90
25640;DHT22;13497;48.322;16.204;2023-05-16T05:29:51;14.90;99.90
25640;DHT22;13497;48.322;16.204;2023-05-16T05:32:17;15.10;99.90
25640;DHT22;13497;48.322;16.204;2023-05-16T05:34:42;15.20;99.90
25640;DHT22;13497;48.322;16.204;2023-05-16T05:37:08;15.30;99.90
25640;DHT22;13497;48.322;16.204;2023-05-16T05:39:34;15.40;99.90
25640;DHT22;13497;48.322;16.204;2023-05-16T05:42:00;15.40;99.90
25640;DHT22;13497;48.322;16.204;2023-05-16T05:44:28;15.40;99.90
25640;DHT22;13497;48.322;16.204;2023-05-16T05:46:54;15.40;99.90
25640;DHT22;13497;48.322;16.204;2023-05-16T05:49:25;15.40;99.90
25640;DHT22;13497;48.322;16.204;2023-05-16T05:51:51;15.90;99.90
25640;DHT22;13497;48.322;16.204;2023-05-16T05:54:18;16.40;99.90
25640;DHT22;13497;48.322;16.204;2023-05-16T05:56:43;16.40;99.90
25640;DHT22;13497;48.322;16.204;2023-05-16T05:59:09;16.40;99.90
25640;DHT22;13497;48.322;16.204;2023-05-16T06:01:35;16.30;99.90
25640;DHT22;13497;48.322;16.204;2023-05-16T06:04:01;16.00;99.90
25640;DHT22;13497;48.322;16.204;2023-05-16T06:06:26;16.00;99.90
25640;DHT22;13497;48.322;16.204;2023-05-16T06:08:53;16.00;99.90
25640;DHT22;13497;48.322;16.204;2023-05-16T06:11:19;16.10;99.90
25640;DHT22;13497;48.322;16.204;2023-05-16T06:13:46;16.10;99.90
25640;DHT22;13497;48.322;16.204;2023-05-16T06:16:11;16.20;99.90
25640;DHT22;13497;48.322;16.204;2023-05-16T06:18:37;16.20;99.90
25640;DHT22;13497;48.322;16.204;2023-05-16T06:21:04;16.10;99.90
25640;DHT22;13497;48.322;16.204;2023-05-16T06:23:30;16.10;99.90
25640;DHT22;13497;48.322;16.204;2023-05-16T06:25:56;16.00;99.90
25640;DHT22;13497;48.322;16.204;2023-05-16T06:28:22;16.00;99.90
25640;DHT22;13497;48.322;16.204;2023-05-16T06:30:48;16.00;99.90
25640;DHT22;13497;48.322;16.204;2023-05-16T06:33:17;16.00;99.90
25640;DHT22;13497;48.322;16.204;2023-05-16T06:35:43;16.10;99.90
25640;DHT22;13497;48.322;16.204;2023-05-16T06:38:09;16.30;99.90
25640;DHT22;13497;48.322;16.204;2023-05-16T06:40:34;16.30;99.90
25640;DHT22;13497;48.322;16.204;2023-05-16T06:43:01;16.30;99.90
25640;DHT22;13497;48.322;16.204;2023-05-16T06:45:26;16.30;99.90
25640;DHT22;13497;48.322;16.204;2023-05-16T06:47:52;16.40;99.90
25640;DHT22;13497;48.322;16.204;2023-05-16T06:50:17;16.50;99.90
25640;DHT22;13497;48.322;16.204;2023-05-16T06:52:43;16.50;99.90
25640;DHT22;13497;48.322;16.204;2023-05-16T06:55:09;16.70;99.90
25640;DHT22;13497;48.322;16.204;2023-05-16T06:57:34;16.70;99.90
25640;DHT22;13497;48.322;16.204;2023-05-16T07:00:00;16.70;99.90
25640;DHT22;13497;48.322;16.204;2023-05-16T07:02:26;16.70;99.90
25640;DHT22;13497;48.322;16.204;2023-05-16T07:04:51;16.90;99.90
25640;DHT22;13497;48.322;16.204;2023-05-16T07:07:17;17.00;99.90
25640;DHT22;13497;48.322;16.204;2023-05-16T07:09:43;16.80;99.90
25640;DHT22;13497;48.322;16.204;2023-05-16T07:12:08;16.60;99.90
25640;DHT22;13497;48.322;16.204;2023-05-16T07:14:34;16.50;99.90
25640;DHT22;13497;48.322;16.204;2023-05-16T07:17:00;16.50;99.90
25640;DHT22;13497;48.322;16.204;2023-05-16T07:19:25;16.40;99.90
25640;DHT22;13497;48.322;16.204;2023-05-16T07:21:51;16.30;99.90
25640;DHT22;13497;48.322;16.204;2023-05-16T07:24:18;16.20;99.90
25640;DHT22;13497;48.322;16.204;2023-05-16T07:26:43;16.20;99.90
25640;DHT22;13497;48.322;16.204;2023-05-16T07:29:09;16.20;99.90
25640;DHT22;13497;48.322;16.204;2023-05-16T07:31:35;16.10;99.90
25640;DHT22;13497;48.322;16.204;2023-05-16T07:34:01;16.00;99.90
25640;DHT22;13497;48.322;16.204;2023-05-16T07:36:26;15.80;99.90
25640;DHT22;13497;48.322;16.204;2023-05-16T07:38:52;15.70;99.90
25640;DHT22;13497;48.322;16.204;2023-05-16T07:41:18;15.60;99.90
25640;DHT22;13497;48.322;16.204;2023-05-16T07:43:43;15.60;99.90
25640;DHT22;13497;48.322;16.204;2023-05-16T07:46:10;15.50;99.90
25640;DHT22;13497;48.322;16.204;2023-05-16T07:48:35;15.50;99.90
25640;DHT22;13497;48.322;16.204;2023-05-16T07:51:01;15.50;99.90
25640;DHT22;13497;48.322;16.204;2023-05-16T07:53:27;15.40;99.90
25640;DHT22;13497;48.322;16.204;2023-05-16T07:55:52;15.40;99.90
25640;DHT22;13497;48.322;16.204;2023-05-16T07:58:18;15.40;99.90
25640;DHT22;13497;48.322;16.204;2023-05-16T08:00:44;15.30;99.90
25640;DHT22;13497;48.322;16.204;2023-05-16T08:03:10;15.30;99.90
25640;DHT22;13497;48.322;16.204;2023-05-16T08:05:35;15.20;99.90
25640;DHT22;13497;48.322;16.204;2023-05-16T08:08:01;15.20;99.90
25640;DHT22;13497;48.322;16.204;2023-05-16T08:10:27;15.20;99.90
25640;DHT22;13497;48.322;16.204;2023-05-16T08:12:52;15.20;99.90
25640;DHT22;13497;48.322;16.204;2023-05-16T08:15:18;15.20;99.90
25640;DHT22;13497;48.322;16.204;2023-05-16T08:17:44;15.20;99.90
25640;DHT22;13497;48.322;16.204;2023-05-16T08:20:10;15.20;99.90
25640;DHT22;13497;48.322;16.204;2023-05-16T08:22:36;15.20;99.90
25640;DHT22;13497;48.322;16.204;2023-05-16T08:25:01;15.30;99.90
25640;DHT22;13497;48.322;16.204;2023-05-16T08:27:28;15.30;99.90
25640;DHT22;13497;48.322;16.204;2023-05-16T08:29:53;15.30;99.90
25640;DHT22;13497;48.322;16.204;2023-05-16T08:32:20;15.20;99.90
25640;DHT22;13497;48.322;16.204;2023-05-16T08:34:46;15.10;99.90
25640;DHT22;13497;48.322;16.204;2023-05-16T08:37:12;15.10;99.90
25640;DHT22;13497;48.322;16.204;2023-05-16T08:39:38;15.10;99.90
25640;DHT22;13497;48.322;16.204;2023-05-16T08:42:04;15.00;99.90
25640;DHT22;13497;48.322;16.204;2023-05-16T08:44:30;14.90;99.90
25640;DHT22;13497;48.322;16.204;2023-05-16T08:46:56;14.90;99.90
25640;DHT22;13497;48.322;16.204;2023-05-16T08:49:22;14.90;99.90
25640;DHT22;13497;48.322;16.204;2023-05-16T08:51:56;14.80;99.90
25640;DHT22;13497;48.322;16.204;2023-05-16T08:54:25;14.80;99.90
25640;DHT22;13497;48.322;16.204;2023-05-16T08:56:51;14.90;99.90
25640;DHT22;13497;48.322;16.204;2023-05-16T08:59:17;14.90;99.90
25640;DHT22;13497;48.322;16.204;2023-05-16T09:01:43;14.90;99.90
25640;DHT22;13497;48.322;16.204;2023-05-16T09:04:09;15.00;99.90
25640;DHT22;13497;48.322;16.204;2023-05-16T09:06:36;15.10;99.90
25640;DHT22;13497;48.322;16.204;2023-05-16T09:09:02;15.20;99.90
25640;DHT22;13497;48.322;16.204;2023-05-16T09:11:29;15.20;99.90
25640;DHT22;13497;48.322;16.204;2023-05-16T09:13:54;15.20;99.90
25640;DHT22;13497;48.322;16.204;2023-05-16T09:16:20;15.10;99.90
25640;DHT22;13497;48.322;16.204;2023-05-16T09:18:53;15.10;99.90
25640;DHT22;13497;48.322;16.204;2023-05-16T09:21:26;15.00;99.90
25640;DHT22;13497;48.322;16.204;2023-05-16T09:23:52;15.10;99.90
25640;DHT22;13497;48.322;16.204;2023-05-16T09:26:18;15.00;99.90
25640;DHT22;13497;48.322;16.204;2023-05-16T09:28:43;15.00;99.90
25640;DHT22;13497;48.322;16.204;2023-05-16T09:31:22;14.90;99.90
25640;DHT22;13497;48.322;16.204;2023-05-16T09:33:51;15.00;99.90
25640;DHT22;13497;48.322;16.204;2023-05-16T09:36:17;14.90;99.90
25640;DHT22;13497;48.322;16.204;2023-05-16T09:38:43;14.90;99.90
25640;DHT22;13497;48.322;16.204;2023-05-16T09:41:11;14.90;99.90
25640;DHT22;13497;48.322;16.204;2023-05-16T09:43:39;14.90;99.90
25640;DHT22;13497;48.322;16.204;2023-05-16T09:46:05;14.80;99.90
25640;DHT22;13497;48.322;16.204;2023-05-16T09:48:33;14.80;99.90
25640;DHT22;13497;48.322;16.204;2023-05-16T09:51:00;14.80;99.90
25640;DHT22;13497;48.322;16.204;2023-05-16T09:53:30;14.80;99.90
25640;DHT22;13497;48.322;16.204;2023-05-16T09:58:33;14.70;99.90
25640;DHT22;13497;48.322;16.204;2023-05-16T10:01:00;14.70;99.90
25640;DHT22;13497;48.322;16.204;2023-05-16T10:03:27;14.80;99.90
25640;DHT22;13497;48.322;16.204;2023-05-16T10:05:54;14.80;99.90
25640;DHT22;13497;48.322;16.204;2023-05-16T10:08:20;14.70;99.90
25640;DHT22;13497;48.322;16.204;2023-05-16T10:10:51;14.70;99.90
25640;DHT22;13497;48.322;16.204;2023-05-16T10:13:22;14.70;99.90
25640;DHT22;13497;48.322;16.204;2023-05-16T10:15:49;14.60;99.90
25640;DHT22;13497;48.322;16.204;2023-05-16T10:18:17;14.60;99.90
25640;DHT22;13497;48.322;16.204;2023-05-16T10:20:45;14.60;99.90
25640;DHT22;13497;48.322;16.204;2023-05-16T10:23:16;14.60;99.90
25640;DHT22;13497;48.322;16.204;2023-05-16T10:25:44;14.60;99.90
25640;DHT22;13497;48.322;16.204;2023-05-16T10:28:11;14.60;99.90
25640;DHT22;13497;48.322;16.204;2023-05-16T10:30:36;14.50;99.90
25640;DHT22;13497;48.322;16.204;2023-05-16T10:33:04;14.60;99.90
25640;DHT22;13497;48.322;16.204;2023-05-16T10:35:30;14.50;99.90
25640;DHT22;13497;48.322;16.204;2023-05-16T10:37:57;14.50;99.90
25640;DHT22;13497;48.322;16.204;2023-05-16T10:40:23;14.40;99.90
25640;DHT22;13497;48.322;16.204;2023-05-16T10:43:00;14.40;99.90
25640;DHT22;13497;48.322;16.204;2023-05-16T10:45:26;14.40;99.90
25640;DHT22;13497;48.322;16.204;2023-05-16T10:47:56;14.40;99.90
25640;DHT22;13497;48.322;16.204;2023-05-16T10:50:42;14.40;99.90
25640;DHT22;13497;48.322;16.204;2023-05-16T11:01:31;14.70;99.90
25640;DHT22;13497;48.322;16.204;2023-05-16T11:06:32;14.60;99.90
25640;DHT22;13497;48.322;16.204;2023-05-16T11:17:13;14.70;99.90
25640;DHT22;13497;48.322;16.204;2023-05-16T11:19:48;14.60;99.90
25640;DHT22;13497;48.322;16.204;2023-05-16T11:22:20;14.50;99.90
25640;DHT22;13497;48.322;16.204;2023-05-16T11:27:31;14.40;99.90
25640;DHT22;13497;48.322;16.204;2023-05-16T11:32:35;14.30;99.90
25640;DHT22;13497;48.322;16.204;2023-05-16T11:35:02;14.30;99.90
25640;DHT22;13497;48.322;16.204;2023-05-16T11:37:28;14.40;99.90
25640;DHT22;13497;48.322;16.204;2023-05-16T11:40:04;14.30;99.90
25640;DHT22;13497;48.322;16.204;2023-05-16T11:42:32;14.30;99.90
25640;DHT22;13497;48.322;16.204;2023-05-16T11:45:10;14.40;99.90
25640;DHT22;13497;48.322;16.204;2023-05-16T11:47:40;14.50;99.90
25640;DHT22;13497;48.322;16.204;2023-05-16T11:50:10;14.60;99.90
25640;DHT22;13497;48.322;16.204;2023-05-16T11:52:37;14.70;99.90
25640;DHT22;13497;48.322;16.204;2023-05-16T11:55:07;14.80;99.90
25640;DHT22;13497;48.322;16.204;2023-05-16T11:57:36;14.80;99.90
25640;DHT22;13497;48.322;16.204;2023-05-16T12:02:43;14.80;99.90
25640;DHT22;13497;48.322;16.204;2023-05-16T12:05:09;14.80;99.90
25640;DHT22;13497;48.322;16.204;2023-05-16T12:07:36;14.80;99.90
25640;DHT22;13497;48.322;16.204;2023-05-16T12:10:07;14.70;99.90
25640;DHT22;13497;48.322;16.204;2023-05-16T12:12:34;14.70;99.90
25640;DHT22;13497;48.322;16.204;2023-05-16T12:15:03;14.60;99.90
25640;DHT22;13497;48.322;16.204;2023-05-16T12:17:30;14.60;99.90
25640;DHT22;13497;48.322;16.204;2023-05-16T12:19:55;14.50;99.90
25640;DHT22;13497;48.322;16.204;2023-05-16T12:22:21;14.40;99.90
25640;DHT22;13497;48.322;16.204;2023-05-16T12:24:47;14.40;99.90
25640;DHT22;13497;48.322;16.204;2023-05-16T12:27:21;14.40;99.90
25640;DHT22;13497;48.322;16.204;2023-05-16T12:29:49;14.50;99.90
25640;DHT22;13497;48.322;16.204;2023-05-16T12:32:17;14.50;99.90
25640;DHT22;13497;48.322;16.204;2023-05-16T12:34:51;14.70;99.90
25640;DHT22;13497;48.322;16.204;2023-05-16T12:37:16;14.80;99.90
25640;DHT22;13497;48.322;16.204;2023-05-16T12:39:42;14.80;99.90
25640;DHT22;13497;48.322;16.204;2023-05-16T12:42:11;14.90;99.90
25640;DHT22;13497;48.322;16.204;2023-05-16T12:44:38;14.80;99.90
25640;DHT22;13497;48.322;16.204;2023-05-16T12:47:10;14.90;99.90
25640;DHT22;13497;48.322;16.204;2023-05-16T12:49:43;14.90;99.90
25640;DHT22;13497;48.322;16.204;2023-05-16T12:52:16;15.00;99.90
25640;DHT22;13497;48.322;16.204;2023-05-16T12:54:42;14.90;99.90
25640;DHT22;13497;48.322;16.204;2023-05-16T12:57:09;14.80;99.90
25640;DHT22;13497;48.322;16.204;2023-05-16T12:59:34;14.80;99.90
25640;DHT22;13497;48.322;16.204;2023-05-16T13:02:00;14.90;99.90
25640;DHT22;13497;48.322;16.204;2023-05-16T13:04:25;14.90;99.90
25640;DHT22;13497;48.322;16.204;2023-05-16T13:06:51;15.10;99.90
25640;DHT22;13497;48.322;16.204;2023-05-16T13:09:17;15.20;99.90
25640;DHT22;13497;48.322;16.204;2023-05-16T13:11:43;15.20;99.90
25640;DHT22;13497;48.322;16.204;2023-05-16T13:14:09;15.10;99.90
25640;DHT22;13497;48.322;16.204;2023-05-16T13:16:35;15.10;99.90
25640;DHT22;13497;48.322;16.204;2023-05-16T13:19:00;15.00;99.90
25640;DHT22;13497;48.322;16.204;2023-05-16T13:21:26;15.00;99.90
25640;DHT22;13497;48.322;16.204;2023-05-16T13:23:54;15.00;99.90
25640;DHT22;13497;48.322;16.204;2023-05-16T13:26:20;15.00;99.90
25640;DHT22;13497;48.322;16.204;2023-05-16T13:28:46;15.10;99.90
25640;DHT22;13497;48.322;16.204;2023-05-16T13:31:15;15.10;99.90
25640;DHT22;13497;48.322;16.204;2023-05-16T13:33:41;15.00;99.90
25640;DHT22;13497;48.322;16.204;2023-05-16T13:36:07;15.10;99.90
25640;DHT22;13497;48.322;16.204;2023-05-16T13:38:32;15.00;99.90
25640;DHT22;13497;48.322;16.204;2023-05-16T13:40:58;14.90;99.90
25640;DHT22;13497;48.322;16.204;2023-05-16T13:43:24;14.80;99.90
25640;DHT22;13497;48.322;16.204;2023-05-16T13:45:50;14.80;99.90
25640;DHT22;13497;48.322;16.204;2023-05-16T13:48:16;14.80;99.90
25640;DHT22;13497;48.322;16.204;2023-05-16T13:50:42;14.90;99.90
25640;DHT22;13497;48.322;16.204;2023-05-16T13:53:07;15.00;99.90
25640;DHT22;13497;48.322;16.204;2023-05-16T13:55:33;15.10;99.90
25640;DHT22;13497;48.322;16.204;2023-05-16T13:57:59;15.10;99.90
25640;DHT22;13497;48.322;16.204;2023-05-16T14:00:25;15.10;99.90
25640;DHT22;13497;48.322;16.204;2023-05-16T14:02:51;15.00;99.90
25640;DHT22;13497;48.322;16.204;2023-05-16T14:05:17;15.00;99.90
25640;DHT22;13497;48.322;16.204;2023-05-16T14:07:43;15.10;99.90
25640;DHT22;13497;48.322;16.204;2023-05-16T14:10:08;15.00;99.90
25640;DHT22;13497;48.322;16.204;2023-05-16T14:12:35;15.10;99.90
25640;DHT22;13497;48.322;16.204;2023-05-16T14:15:01;15.00;99.90
25640;DHT22;13497;48.322;16.204;2023-05-16T14:17:27;14.90;99.90
25640;DHT22;13497;48.322;16.204;2023-05-16T14:19:52;14.90;99.90
25640;DHT22;13497;48.322;16.204;2023-05-16T14:22:18;14.90;99.90
25640;DHT22;13497;48.322;16.204;2023-05-16T14:24:44;14.90;99.90
25640;DHT22;13497;48.322;16.204;2023-05-16T14:27:10;14.90;99.90
25640;DHT22;13497;48.322;16.204;2023-05-16T14:29:35;15.00;99.90
25640;DHT22;13497;48.322;16.204;2023-05-16T14:32:01;15.10;99.90
25640;DHT22;13497;48.322;16.204;2023-05-16T14:34:27;15.10;99.90
25640;DHT22;13497;48.322;16.204;2023-05-16T14:36:52;15.10;99.90
25640;DHT22;13497;48.322;16.204;2023-05-16T14:39:18;15.10;99.90
25640;DHT22;13497;48.322;16.204;2023-05-16T14:41:44;15.00;99.90
25640;DHT22;13497;48.322;16.204;2023-05-16T14:44:09;14.90;99.90
25640;DHT22;13497;48.322;16.204;2023-05-16T14:46:35;14.80;99.90
25640;DHT22;13497;48.322;16.204;2023-05-16T14:49:00;14.70;99.90
25640;DHT22;13497;48.322;16.204;2023-05-16T14:51:26;14.70;99.90
25640;DHT22;13497;48.322;16.204;2023-05-16T14:53:52;14.70;99.90
25640;DHT22;13497;48.322;16.204;2023-05-16T14:56:17;14.60;99.90
25640;DHT22;13497;48.322;16.204;2023-05-16T14:58:43;14.60;99.90
25640;DHT22;13497;48.322;16.204;2023-05-16T15:01:09;14.50;99.90
25640;DHT22;13497;48.322;16.204;2023-05-16T15:03:35;14.50;99.90
25640;DHT22;13497;48.322;16.204;2023-05-16T15:06:01;14.60;99.90
25640;DHT22;13497;48.322;16.204;2023-05-16T15:08:29;14.60;99.90
25640;DHT22;13497;48.322;16.204;2023-05-16T15:10:55;14.60;99.90
25640;DHT22;13497;48.322;16.204;2023-05-16T15:13:20;14.70;99.90
25640;DHT22;13497;48.322;16.204;2023-05-16T15:15:46;14.70;99.90
25640;DHT22;13497;48.322;16.204;2023-05-16T15:18:12;14.70;99.90
25640;DHT22;13497;48.322;16.204;2023-05-16T15:20:38;14.70;99.90
25640;DHT22;13497;48.322;16.204;2023-05-16T15:23:04;14.70;99.90
25640;DHT22;13497;48.322;16.204;2023-05-16T15:25:30;14.70;99.90
25640;DHT22;13497;48.322;16.204;2023-05-16T15:27:56;14.80;99.90
25640;DHT22;13497;48.322;16.204;2023-05-16T15:30:21;14.80;99.90
25640;DHT22;13497;48.322;16.204;2023-05-16T15:32:47;14.80;99.90
25640;DHT22;13497;48.322;16.204;2023-05-16T15:35:12;14.70;99.90
25640;DHT22;13497;48.322;16.204;2023-05-16T15:37:39;14.70;99.90
25640;DHT22;13497;48.322;16.204;2023-05-16T15:40:05;14.70;99.90
25640;DHT22;13497;48.322;16.204;2023-05-16T15:42:31;14.70;99.90
25640;DHT22;13497;48.322;16.204;2023-05-16T15:44:56;14.70;99.90
25640;DHT22;13497;48.322;16.204;2023-05-16T15:47:22;14.60;99.90
25640;DHT22;13497;48.322;16.204;2023-05-16T15:49:47;14.60;99.90
25640;DHT22;13497;48.322;16.204;2023-05-16T15:52:13;14.60;99.90
25640;DHT22;13497;48.322;16.204;2023-05-16T15:54:39;14.70;99.90